Country
Station

 

Weather  for  Kulusuk Lufthavn  -  Greenland    Greenland

  
0 °C (32 °F)
    
 
 

Current METAR for Kulusuk Lufthavn is :

BGKK 161850Z AUTO 08037G63KT 7000NDV -SHRA OVC031/// M00/M06 Q0992

 

This is a report for Kulusuk Lufthavn - Greenland.
 
The report was made 11 minutes ago, at 18:50 UTC .
The wind was blowing at a speed of 19.0 meters per second (42.6 miles per hour) with gusts up to 32.4 meters per second (72.5 miles per hour) from east (080°).
 
The temperature was 0 °C (32 °F), with a dew-point at -6 °C (21 °F).
The temperature felt like -9 °C (15 °F).
 
The atmospheric pressure was 992 hPa (29.29 inHg).
Currently showers of light rain.

 
 
 
 

Country :   A   B   C   D   E   F   G   H   I   J   K   L   M   N   O   P   Q   R   S   T   U   V   W   Y   Z

 

Site Info  |  Disclaimer  |  Credits  |  Privacy
Contact us  |  Add to favorites
© 2013-2018 METARs - All rights reserved